createdAt,value
2022-12-29T00:01:42.157Z,2624.87809
2022-12-29T00:16:44.239Z,2622.30972
2022-12-29T00:31:46.253Z,2627.4515
2022-12-29T00:46:48.373Z,2454.21297
2022-12-29T01:01:50.532Z,2495.34502
2022-12-29T01:16:52.523Z,2392.85765
2022-12-29T01:31:54.530Z,2427.53674
2022-12-29T01:46:56.519Z,2403.58795
2022-12-29T02:01:58.568Z,2420.95805
2022-12-29T02:17:00.583Z,2407.90707
2022-12-29T02:32:02.632Z,2384.34215
2022-12-29T02:47:04.718Z,2380.10708
2022-12-29T03:02:06.811Z,2382.22273
2022-12-29T03:17:09.741Z,2218.54355
2022-12-29T03:32:11.713Z,2050.49782
2022-12-29T03:47:13.566Z,1917.02482
2022-12-29T04:02:16.655Z,1912.91984
2022-12-29T04:17:20.456Z,1464.48139
2022-12-29T04:32:22.384Z,1341.34185
2022-12-29T04:47:24.422Z,1398.7479
2022-12-29T05:02:26.639Z,1462.88261
2022-12-29T05:17:28.834Z,1361.78913
2022-12-29T05:32:30.783Z,1564.50721
2022-12-29T05:47:32.677Z,1796.24714
2022-12-29T06:02:35.223Z,1906.11714
2022-12-29T06:17:37.275Z,2211.22163
2022-12-29T06:32:39.210Z,2194.9227
2022-12-29T06:47:41.189Z,2126.98463
2022-12-29T07:02:43.336Z,2083.98184
2022-12-29T07:17:45.326Z,2067.90174
2022-12-29T07:32:47.308Z,2061.53896
2022-12-29T07:47:49.234Z,2075.91065
2022-12-29T08:02:51.125Z,2275.04295
2022-12-29T08:17:53.023Z,2286.68993
2022-12-29T08:32:54.883Z,2240.80318
2022-12-29T08:47:56.827Z,1940.62324
2022-12-29T09:02:59.054Z,2161.29083
2022-12-29T09:18:01.095Z,2316.33586
2022-12-29T09:33:03.073Z,2348.81734
2022-12-29T09:48:09.623Z,2521.16702
2022-12-29T10:03:11.853Z,2569.51154
2022-12-29T10:18:13.889Z,2584.37853
2022-12-29T10:33:15.906Z,2658.73068
2022-12-29T10:48:17.830Z,2757.20217
2022-12-29T11:03:19.895Z,2829.98997
2022-12-29T11:18:21.966Z,2925.76472
2022-12-29T11:33:23.895Z,2991.07196
2022-12-29T11:48:25.881Z,3066.36204
2022-12-29T12:03:28.099Z,3084.00509
2022-12-29T12:18:30.178Z,3059.36121
2022-12-29T12:33:32.075Z,3152.94166
2022-12-29T12:48:34.071Z,3167.84918
2022-12-29T13:03:36.285Z,3203.82595
2022-12-29T13:18:38.324Z,3194.27939
2022-12-29T13:33:40.284Z,3234.7621
2022-12-29T13:48:42.282Z,3256.37959
2022-12-29T14:03:44.542Z,3240.62926
2022-12-29T14:18:46.602Z,3246.51775
2022-12-29T14:33:48.545Z,3256.37959
2022-12-29T14:48:50.473Z,3240.62926
2022-12-29T15:03:52.493Z,3230.86245
2022-12-29T15:18:54.412Z,3221.15433
2022-12-29T15:33:56.403Z,3223.09129
2022-12-29T15:48:58.342Z,3203.82595
2022-12-29T16:04:00.372Z,3205.74211
2022-12-29T16:19:02.381Z,3217.2874
2022-12-29T16:34:04.315Z,3215.35741
2022-12-29T16:49:06.224Z,3244.55254
2022-12-29T17:04:08.189Z,3203.82595
2022-12-29T17:19:10.107Z,3165.97804
2022-12-29T17:34:12.104Z,3068.11726
2022-12-29T17:49:14.054Z,2838.98358
2022-12-29T18:04:15.948Z,2365.4021
2022-12-29T18:19:17.907Z,2168.28529
2022-12-29T18:34:19.895Z,2394.99604
2022-12-29T18:49:22.240Z,2493.02377
2022-12-29T19:04:24.167Z,2614.63466
2022-12-29T19:19:26.313Z,2624.87809
2022-12-29T19:34:28.257Z,2554.81462
2022-12-29T19:49:30.237Z,2547.52903
2022-12-29T20:04:32.232Z,2622.30972
2022-12-29T20:19:34.207Z,2650.84127
2022-12-29T20:34:36.153Z,2751.54056
2022-12-29T20:49:38.132Z,2774.32765
2022-12-29T21:05:13.507Z,2832.9815
2022-12-29T21:20:24.931Z,2838.98358
2022-12-29T21:35:27.124Z,2884.82292
2022-12-29T21:50:29.082Z,2922.57414
2022-12-29T22:05:31.014Z,2948.29536
2022-12-29T22:20:33.015Z,2954.79656
2022-12-29T22:35:35.155Z,2961.3265
2022-12-29T22:50:37.098Z,2964.6023
2022-12-29T23:05:39.102Z,2989.40372
2022-12-29T23:20:41.007Z,3014.62366
2022-12-29T23:35:43.013Z,3012.92909
2022-12-29T23:50:45.091Z,3026.53916
